Time;durP1;ratioP1;P1;durP2;ratioP2;P2;SDS_P1;SDS_P2;PMS_P1;PMS_P2;Temp;Humidity;BMP_temperature;BMP_pressure;BME280_temperature;BME280_humidity;BME280_pressure;Samples;Min_cycle;Max_cycle;Signal;HPM_P1;HPM_P2
2021/11/03 00:00:06;;;;;;;11.77;7.30;;;4.60;99.90;;;;;;5113514;28;20088;-74
2021/11/03 00:02:33;;;;;;;11.80;8.90;;;4.50;99.90;;;;;;5113089;28;20047;-74
2021/11/03 00:05:01;;;;;;;12.10;8.13;;;4.40;99.90;;;;;;5112713;28;20047;-74
2021/11/03 00:07:29;;;;;;;13.60;7.67;;;4.40;99.90;;;;;;5113505;28;20051;-72
2021/11/03 00:09:57;;;;;;;13.03;8.30;;;4.30;99.90;;;;;;5115916;28;20054;-73
2021/11/03 00:12:25;;;;;;;11.83;8.63;;;4.20;99.90;;;;;;5115738;28;20051;-73
2021/11/03 00:14:52;;;;;;;14.60;8.47;;;4.20;99.90;;;;;;5114564;28;20549;-73
2021/11/03 00:17:18;;;;;;;12.90;7.97;;;4.20;99.90;;;;;;5114711;28;20051;-73
2021/11/03 00:19:45;;;;;;;10.53;8.40;;;4.20;99.90;;;;;;5112815;28;20052;-75
2021/11/03 00:22:12;;;;;;;11.10;7.90;;;4.10;99.90;;;;;;5113021;28;20052;-75
2021/11/03 00:24:39;;;;;;;14.50;8.03;;;4.00;99.90;;;;;;5112486;28;20043;-75
2021/11/03 00:27:06;;;;;;;9.83;6.90;;;4.00;99.90;;;;;;5112844;28;20051;-74
2021/11/03 00:29:34;;;;;;;11.67;7.97;;;3.90;99.90;;;;;;5112747;28;20043;-75
2021/11/03 00:32:00;;;;;;;8.63;6.73;;;3.90;99.90;;;;;;5112771;28;20495;-73
2021/11/03 00:34:27;;;;;;;9.23;6.67;;;3.80;99.90;;;;;;5112460;28;20044;-74
2021/11/03 00:36:54;;;;;;;10.87;7.50;;;3.80;99.90;;;;;;5112976;28;20048;-75
2021/11/03 00:39:22;;;;;;;16.00;8.33;;;3.80;99.90;;;;;;5112534;28;20035;-75
2021/11/03 00:41:49;;;;;;;14.27;7.23;;;3.80;99.90;;;;;;5112465;28;20047;-74
2021/11/03 00:44:15;;;;;;;11.50;7.53;;;3.70;99.90;;;;;;5112069;28;20047;-74
2021/11/03 00:46:44;;;;;;;11.03;7.50;;;3.70;99.90;;;;;;5112375;28;20048;-74
2021/11/03 00:49:10;;;;;;;8.03;5.53;;;3.60;99.90;;;;;;5112441;28;20043;-72
2021/11/03 00:51:37;;;;;;;7.80;6.80;;;3.60;99.90;;;;;;5112598;28;20080;-73
2021/11/03 00:54:03;;;;;;;9.47;7.13;;;3.50;99.90;;;;;;5111672;28;20449;-74
2021/11/03 00:56:30;;;;;;;13.97;7.73;;;3.70;99.90;;;;;;5112096;28;20040;-73
2021/11/03 00:58:57;;;;;;;12.13;7.97;;;3.70;99.90;;;;;;5112148;28;20503;-73
2021/11/03 01:01:24;;;;;;;11.10;7.13;;;3.70;99.90;;;;;;5112255;28;20104;-73
2021/11/03 01:03:52;;;;;;;12.17;8.80;;;3.70;99.90;;;;;;5112448;28;20128;-74
2021/11/03 01:06:18;;;;;;;9.20;7.03;;;3.50;99.90;;;;;;5116778;28;20130;-74
2021/11/03 01:08:45;;;;;;;11.23;6.47;;;3.40;99.90;;;;;;5116405;28;20498;-74
2021/11/03 01:11:12;;;;;;;14.10;6.97;;;3.40;99.90;;;;;;5116499;28;20039;-73
2021/11/03 01:13:38;;;;;;;12.40;7.30;;;3.40;99.90;;;;;;5115836;28;20048;-73
2021/11/03 01:16:06;;;;;;;10.00;6.60;;;3.30;99.90;;;;;;5116978;28;20075;-72
2021/11/03 01:18:33;;;;;;;7.50;6.33;;;3.30;99.90;;;;;;5116918;28;20044;-73
2021/11/03 01:21:04;;;;;;;8.67;6.80;;;3.30;99.90;;;;;;5117080;28;20043;-73
2021/11/03 01:23:32;;;;;;;11.57;7.70;;;3.20;99.90;;;;;;5116424;28;20100;-74
2021/11/03 01:25:59;;;;;;;11.03;8.07;;;3.20;99.90;;;;;;5116947;28;20044;-72
2021/11/03 01:28:26;;;;;;;10.97;7.87;;;3.20;99.90;;;;;;5116473;28;20544;-75
2021/11/03 01:30:55;;;;;;;12.77;7.93;;;3.10;99.90;;;;;;5116322;28;20503;-74
2021/11/03 01:33:22;;;;;;;12.97;7.73;;;3.10;99.90;;;;;;5115525;28;20116;-75
2021/11/03 01:35:49;;;;;;;10.67;7.97;;;3.00;99.90;;;;;;5115955;28;20392;-74
2021/11/03 01:38:17;;;;;;;9.43;7.40;;;3.20;99.90;;;;;;5116240;28;20047;-75
2021/11/03 01:40:46;;;;;;;10.60;7.27;;;3.10;99.90;;;;;;5115705;28;20545;-74
2021/11/03 01:43:18;;;;;;;10.57;8.40;;;3.10;99.90;;;;;;5115408;28;20048;-74
2021/11/03 01:45:47;;;;;;;9.50;6.60;;;3.10;99.90;;;;;;5117153;28;20139;-74
2021/11/03 01:48:14;;;;;;;11.90;7.70;;;3.20;99.90;;;;;;5116050;28;20043;-74
2021/11/03 01:50:45;;;;;;;9.63;6.80;;;3.10;99.90;;;;;;5116575;28;20096;-74
2021/11/03 01:53:16;;;;;;;8.80;7.72;;;3.00;99.90;;;;;;5116034;28;20044;-74
2021/11/03 01:55:50;;;;;;;10.15;7.72;;;2.90;99.90;;;;;;5116782;28;20040;-74
2021/11/03 01:58:23;;;;;;;9.60;6.47;;;2.80;99.90;;;;;;5115379;28;20474;-73
2021/11/03 02:00:53;;;;;;;10.90;5.97;;;2.70;99.90;;;;;;5115888;28;20051;-72
2021/11/03 02:03:23;;;;;;;9.00;6.40;;;2.70;99.90;;;;;;5115170;28;20044;-72
2021/11/03 02:05:56;;;;;;;12.80;8.43;;;2.70;99.90;;;;;;5115484;28;20051;-74
2021/11/03 02:08:24;;;;;;;11.83;6.43;;;2.80;99.90;;;;;;5115572;28;20092;-75
2021/11/03 02:10:52;;;;;;;8.13;6.17;;;2.60;99.90;;;;;;5115467;28;20093;-74
2021/11/03 02:13:19;;;;;;;8.10;6.97;;;2.70;99.90;;;;;;5114872;28;20044;-73
2021/11/03 02:15:46;;;;;;;10.93;5.57;;;2.70;99.90;;;;;;5114336;28;20044;-73
2021/11/03 02:18:16;;;;;;;8.60;6.80;;;2.80;99.90;;;;;;5115103;28;20381;-73
2021/11/03 02:20:47;;;;;;;9.13;6.10;;;2.70;99.90;;;;;;5115301;28;20063;-72
2021/11/03 02:23:19;;;;;;;8.70;6.43;;;2.50;99.90;;;;;;5114617;28;20044;-73
2021/11/03 02:25:52;;;;;;;9.03;6.20;;;2.50;99.90;;;;;;5114929;28;20209;-75
2021/11/03 02:28:20;;;;;;;11.47;6.40;;;2.50;99.90;;;;;;5114379;28;20044;-74
2021/11/03 02:30:46;;;;;;;9.33;7.70;;;2.50;99.90;;;;;;5114502;28;20096;-73
2021/11/03 02:33:20;;;;;;;10.43;6.60;;;2.50;99.90;;;;;;5114438;28;20047;-73
2021/11/03 02:35:51;;;;;;;12.27;8.83;;;2.50;99.90;;;;;;5114684;28;20473;-74
2021/11/03 02:38:31;;;;;;;11.48;7.88;;;2.60;99.90;;;;;;5114620;28;20048;-74
2021/11/03 02:41:04;;;;;;;7.23;5.87;;;2.60;99.90;;;;;;5114707;28;20047;-73
2021/11/03 02:43:38;;;;;;;7.90;5.53;;;2.60;99.90;;;;;;5114195;28;20047;-72
2021/11/03 02:46:06;;;;;;;10.27;6.60;;;2.50;99.90;;;;;;5114682;28;20047;-74
2021/11/03 02:48:35;;;;;;;10.20;6.77;;;2.50;99.90;;;;;;5114125;28;20048;-72
2021/11/03 02:51:07;;;;;;;8.63;6.53;;;2.40;99.90;;;;;;5114532;28;20047;-74
2021/11/03 02:53:38;;;;;;;9.20;6.47;;;2.30;99.90;;;;;;5113838;28;20093;-73
2021/11/03 02:56:06;;;;;;;9.70;7.60;;;2.20;99.90;;;;;;5114757;28;20047;-73
2021/11/03 02:58:34;;;;;;;7.37;5.90;;;2.30;99.90;;;;;;5114422;28;20047;-74
2021/11/03 03:01:11;;;;;;;7.60;5.93;;;2.30;99.90;;;;;;5114594;28;20051;-74
2021/11/03 03:03:38;;;;;;;10.33;6.47;;;2.20;99.90;;;;;;5113933;28;20457;-74
2021/11/03 03:06:09;;;;;;;10.63;6.90;;;2.20;99.90;;;;;;5114388;28;20126;-75
2021/11/03 03:08:36;;;;;;;7.03;6.33;;;2.10;99.90;;;;;;5114403;28;20047;-73
2021/11/03 03:11:03;;;;;;;8.00;5.80;;;2.10;99.90;;;;;;5114277;28;20323;-74
2021/11/03 03:13:32;;;;;;;15.53;8.57;;;2.10;99.90;;;;;;5113366;28;20047;-74
2021/11/03 03:15:59;;;;;;;12.80;7.33;;;2.10;99.90;;;;;;5113914;28;20043;-74
2021/11/03 03:18:25;;;;;;;9.83;6.60;;;2.10;99.90;;;;;;5113883;28;20052;-74
2021/11/03 03:20:52;;;;;;;11.57;7.27;;;2.10;99.90;;;;;;5113750;28;20073;-74
2021/11/03 03:23:19;;;;;;;10.57;6.93;;;2.00;99.90;;;;;;5113618;28;20054;-75
2021/11/03 03:25:48;;;;;;;11.73;7.30;;;2.00;99.90;;;;;;5113722;28;20479;-73
2021/11/03 03:28:16;;;;;;;8.33;5.20;;;2.00;99.90;;;;;;5112528;28;20475;-74
2021/11/03 03:30:44;;;;;;;7.87;5.90;;;2.00;99.90;;;;;;5113587;28;20070;-73
2021/11/03 03:33:11;;;;;;;14.00;6.57;;;2.10;99.90;;;;;;5113078;28;20047;-74
2021/11/03 03:35:38;;;;;;;8.77;6.33;;;2.10;99.90;;;;;;5113441;28;20048;-73
2021/11/03 03:38:04;;;;;;;8.80;5.73;;;2.00;99.90;;;;;;5113540;28;20487;-75
2021/11/03 03:40:31;;;;;;;14.03;7.57;;;1.90;99.90;;;;;;5113312;28;20484;-74
2021/11/03 03:42:58;;;;;;;9.77;5.90;;;1.90;99.90;;;;;;5113377;28;20050;-72
2021/11/03 03:45:25;;;;;;;9.13;6.13;;;1.80;99.90;;;;;;5112820;28;20089;-73
2021/11/03 03:47:53;;;;;;;12.33;7.83;;;1.80;99.90;;;;;;5112993;28;20077;-74
2021/11/03 03:50:19;;;;;;;7.73;5.53;;;1.70;99.90;;;;;;5113452;28;20048;-72
2021/11/03 03:52:46;;;;;;;14.33;7.90;;;1.80;99.90;;;;;;5113441;28;20052;-75
2021/11/03 03:55:13;;;;;;;10.00;5.73;;;1.80;99.90;;;;;;5112862;28;20055;-75
2021/11/03 03:57:40;;;;;;;11.17;6.60;;;1.70;99.90;;;;;;5113149;28;20561;-74
2021/11/03 04:00:11;;;;;;;9.30;6.20;;;1.70;99.90;;;;;;5113051;28;20055;-75
2021/11/03 04:02:38;;;;;;;9.33;5.87;;;1.80;99.90;;;;;;5112977;28;20051;-74
2021/11/03 04:05:07;;;;;;;6.70;4.60;;;1.70;99.90;;;;;;5112897;28;20289;-73
2021/11/03 04:07:33;;;;;;;8.07;5.90;;;1.70;99.90;;;;;;5113045;28;20487;-74
2021/11/03 04:10:00;;;;;;;6.53;5.77;;;1.60;99.90;;;;;;5113049;28;20039;-74
2021/11/03 04:12:27;;;;;;;7.93;5.20;;;1.60;99.90;;;;;;5112787;28;20062;-75
2021/11/03 04:14:54;;;;;;;7.60;5.73;;;1.50;99.90;;;;;;5112000;28;20107;-74
2021/11/03 04:17:21;;;;;;;9.70;6.10;;;1.60;99.90;;;;;;5112922;28;20101;-73
2021/11/03 04:19:47;;;;;;;7.93;7.00;;;1.80;99.90;;;;;;5112628;28;20047;-76
2021/11/03 04:22:15;;;;;;;9.70;6.87;;;2.10;99.90;;;;;;5112992;28;20047;-75
2021/11/03 04:24:42;;;;;;;8.90;4.83;;;2.10;99.90;;;;;;5112228;27;20077;-74
2021/11/03 04:27:09;;;;;;;13.00;7.80;;;2.20;99.90;;;;;;5112895;28;20047;-75
2021/11/03 04:29:36;;;;;;;9.83;6.23;;;2.20;99.90;;;;;;5112992;28;20574;-74
2021/11/03 04:32:04;;;;;;;10.10;6.63;;;2.30;99.90;;;;;;5112683;28;20047;-74
2021/11/03 04:34:30;;;;;;;8.53;5.87;;;2.40;99.90;;;;;;5112041;28;20124;-75
2021/11/03 04:36:57;;;;;;;12.67;7.23;;;2.30;99.90;;;;;;5112605;28;20047;-75
2021/11/03 04:39:25;;;;;;;10.70;6.43;;;2.30;99.90;;;;;;5112432;28;20068;-74
2021/11/03 04:41:52;;;;;;;21.80;7.70;;;2.40;99.90;;;;;;5112312;28;20040;-74
2021/11/03 04:44:18;;;;;;;8.80;6.67;;;2.40;99.90;;;;;;5111599;28;20112;-71
2021/11/03 04:46:46;;;;;;;13.47;8.13;;;2.40;99.90;;;;;;5111964;27;20549;-72
2021/11/03 04:49:13;;;;;;;9.80;6.10;;;2.40;99.90;;;;;;5112315;28;20050;-71
2021/11/03 04:51:40;;;;;;;13.53;8.83;;;2.50;99.90;;;;;;5112374;28;20097;-71
2021/11/03 04:54:07;;;;;;;10.27;6.77;;;2.40;99.90;;;;;;5111702;28;20056;-73
2021/11/03 04:56:37;;;;;;;9.40;5.57;;;2.40;99.90;;;;;;5112257;28;20434;-71
2021/11/03 04:59:04;;;;;;;15.70;6.53;;;2.40;99.90;;;;;;5112374;28;20047;-73
2021/11/03 05:01:34;;;;;;;18.70;8.33;;;2.40;99.90;;;;;;5112169;28;20050;-74
2021/11/03 05:04:02;;;;;;;18.60;7.17;;;2.50;99.90;;;;;;5111597;28;20588;-73
2021/11/03 05:06:33;;;;;;;13.23;5.70;;;2.50;99.90;;;;;;5112391;28;20101;-76
2021/11/03 05:09:00;;;;;;;;;;;2.50;99.90;;;;;;5112486;28;20109;-73
2021/11/03 05:11:27;;;;;;;12.93;8.77;;;2.50;99.90;;;;;;5111958;28;19924;-77
2021/11/03 05:13:56;;;;;;;7.70;6.37;;;2.50;99.90;;;;;;5111605;28;20158;-80
2021/11/03 05:16:26;;;;;;;10.37;7.40;;;2.70;99.90;;;;;;5112349;28;20590;-72
2021/11/03 05:18:53;;;;;;;18.53;8.37;;;2.70;99.90;;;;;;5111752;28;20051;-71
2021/11/03 05:21:21;;;;;;;9.90;6.23;;;2.80;99.90;;;;;;5111822;28;20473;-71
2021/11/03 05:23:47;;;;;;;15.70;7.70;;;2.70;99.90;;;;;;5111636;28;20093;-69
2021/11/03 05:26:17;;;;;;;10.43;6.70;;;2.60;99.90;;;;;;5112022;28;20048;-72
2021/11/03 05:28:45;;;;;;;27.87;7.57;;;2.60;99.90;;;;;;5112084;28;20046;-73
2021/11/03 05:31:13;;;;;;;8.93;6.23;;;2.60;99.90;;;;;;5111828;28;20135;-73
2021/11/03 05:33:40;;;;;;;10.23;5.80;;;2.70;99.90;;;;;;5111499;28;20104;-74
2021/11/03 05:36:07;;;;;;;31.50;8.23;;;2.70;99.90;;;;;;5111729;28;20048;-72
2021/11/03 05:38:34;;;;;;;36.63;6.03;;;2.60;99.90;;;;;;5111764;28;20054;-73
2021/11/03 05:41:00;;;;;;;20.87;6.60;;;2.70;99.90;;;;;;5111851;28;20051;-72
2021/11/03 05:43:27;;;;;;;8.97;6.37;;;2.50;99.90;;;;;;5111267;28;20810;-72
2021/11/03 05:45:54;;;;;;;13.67;6.83;;;2.40;99.90;;;;;;5112099;28;20043;-71
2021/11/03 05:48:28;;;;;;;24.87;11.30;;;2.30;99.90;;;;;;5111852;28;20093;-70
2021/11/03 05:50:55;;;;;;;16.47;10.23;;;2.10;99.90;;;;;;5112166;28;20055;-69
2021/11/03 05:53:22;;;;;;;24.43;8.10;;;2.10;99.90;;;;;;5115161;28;20500;-69
2021/11/03 05:55:49;;;;;;;12.77;6.90;;;1.90;99.90;;;;;;5114992;28;20048;-70
2021/11/03 05:58:15;;;;;;;27.40;9.43;;;1.90;99.90;;;;;;5115415;28;20092;-73
2021/11/03 06:00:42;;;;;;;11.27;6.20;;;1.80;99.90;;;;;;5115336;28;20048;-73
2021/11/03 06:03:09;;;;;;;21.07;9.17;;;1.70;99.90;;;;;;5114938;28;20100;-75
2021/11/03 06:05:37;;;;;;;30.07;8.70;;;1.80;99.90;;;;;;5115144;28;20108;-76
2021/11/03 06:08:07;;;;;;;14.70;8.37;;;1.80;99.90;;;;;;5116210;28;20108;-77
2021/11/03 06:10:40;;;;;;;17.40;9.33;;;1.70;99.90;;;;;;5115229;28;20097;-73
2021/11/03 06:13:08;;;;;;;18.10;9.03;;;1.70;99.90;;;;;;5114954;28;20055;-72
2021/11/03 06:15:36;;;;;;;13.03;8.90;;;1.70;99.90;;;;;;5114969;28;20134;-74
2021/11/03 06:18:04;;;;;;;14.37;8.07;;;1.60;99.90;;;;;;5114933;28;20044;-76
2021/11/03 06:20:32;;;;;;;17.57;7.70;;;1.60;99.90;;;;;;5114924;28;20536;-74
2021/11/03 06:23:00;;;;;;;11.67;8.27;;;1.50;99.90;;;;;;5115202;28;20425;-72
2021/11/03 06:25:28;;;;;;;41.97;8.33;;;1.60;99.90;;;;;;5114572;28;20121;-72
2021/11/03 06:27:56;;;;;;;14.23;7.70;;;1.70;99.90;;;;;;5114962;28;20048;-73
2021/11/03 06:30:26;;;;;;;12.43;7.97;;;1.70;99.90;;;;;;5114603;28;20043;-73
2021/11/03 06:32:53;;;;;;;26.13;9.60;;;1.70;99.90;;;;;;5114963;28;20055;-74
2021/11/03 06:35:20;;;;;;;11.50;6.90;;;1.80;99.90;;;;;;5114131;28;20047;-73
2021/11/03 06:37:47;;;;;;;11.60;6.37;;;1.80;99.90;;;;;;5115783;28;20051;-76
2021/11/03 06:40:19;;;;;;;12.60;7.10;;;1.80;99.90;;;;;;5115101;28;20043;-71
2021/11/03 06:42:55;;;;;;;;;;;1.80;99.90;;;;;;5117894;28;20048;-73
2021/11/03 06:45:23;;;;;;;10.17;7.90;;;1.70;99.90;;;;;;5116331;28;19973;-73
2021/11/03 06:47:51;;;;;;;11.43;6.57;;;1.70;99.90;;;;;;5120567;28;20120;-77
2021/11/03 06:50:23;;;;;;;9.13;6.97;;;1.70;99.90;;;;;;5117675;28;20043;-75
2021/11/03 06:52:52;;;;;;;11.87;8.13;;;1.80;99.90;;;;;;5114685;28;20043;-71
2021/11/03 06:55:21;;;;;;;14.67;8.53;;;1.90;99.90;;;;;;5113593;28;20051;-73
2021/11/03 06:57:48;;;;;;;13.73;7.87;;;2.00;99.90;;;;;;5114166;28;20043;-74
2021/11/03 07:00:20;;;;;;;15.83;9.20;;;2.00;99.90;;;;;;5114215;28;20052;-71
2021/11/03 07:02:48;;;;;;;28.25;20.00;;;2.10;99.90;;;;;;5114035;28;20040;-78
2021/11/03 07:05:15;;;;;;;10.37;7.43;;;2.20;99.90;;;;;;5113043;28;20044;-71
2021/11/03 07:07:42;;;;;;;13.07;9.27;;;2.20;99.90;;;;;;5113969;28;20120;-73
2021/11/03 07:10:13;;;;;;;9.97;7.17;;;2.20;99.90;;;;;;5113987;28;20047;-73
2021/11/03 07:12:41;;;;;;;13.40;7.23;;;2.40;99.90;;;;;;5113880;28;20491;-74
2021/11/03 07:15:10;;;;;;;8.33;6.07;;;2.50;99.90;;;;;;5113741;28;20301;-74
2021/11/03 07:17:37;;;;;;;13.87;8.20;;;2.60;99.90;;;;;;5114263;28;20059;-73
2021/11/03 07:20:05;;;;;;;12.50;8.23;;;2.80;99.90;;;;;;5113856;28;20066;-74
2021/11/03 07:22:32;;;;;;;12.87;8.60;;;2.80;99.90;;;;;;5115211;28;20051;-77
2021/11/03 07:25:01;;;;;;;12.53;8.60;;;3.00;99.90;;;;;;5115190;28;20400;-76
2021/11/03 07:27:31;;;;;;;14.67;8.53;;;3.10;99.90;;;;;;5117424;28;20503;-78
2021/11/03 07:30:00;;;;;;;11.83;8.93;;;3.30;99.90;;;;;;5114719;28;20454;-74
2021/11/03 07:32:27;;;;;;;16.40;9.07;;;3.50;99.90;;;;;;5113648;28;20096;-73
2021/11/03 07:34:54;;;;;;;13.17;8.83;;;3.50;99.90;;;;;;5113037;28;20134;-72
2021/11/03 07:37:21;;;;;;;9.67;8.07;;;3.50;99.90;;;;;;5113558;28;20050;-72
2021/11/03 07:39:48;;;;;;;14.53;8.03;;;3.60;99.90;;;;;;5113457;28;20063;-72
2021/11/03 07:42:15;;;;;;;13.00;8.47;;;3.60;99.90;;;;;;5113391;28;20044;-72
2021/11/03 07:44:42;;;;;;;17.10;8.33;;;3.70;99.90;;;;;;5112933;28;20054;-72
2021/11/03 07:47:10;;;;;;;17.37;9.23;;;3.70;99.90;;;;;;5112953;28;20556;-71
2021/11/03 07:49:36;;;;;;;11.00;7.47;;;3.70;99.90;;;;;;5112901;28;20044;-72
2021/11/03 07:52:03;;;;;;;10.33;7.27;;;3.70;99.90;;;;;;5113253;28;20070;-73
2021/11/03 07:54:30;;;;;;;12.07;8.47;;;3.70;99.90;;;;;;5112617;28;20043;-73
2021/11/03 07:56:57;;;;;;;13.60;9.03;;;3.80;99.90;;;;;;5113081;28;20051;-74
2021/11/03 07:59:24;;;;;;;13.10;7.50;;;4.00;99.90;;;;;;5113007;28;20079;-72
2021/11/03 08:01:54;;;;;;;14.90;9.33;;;4.10;99.90;;;;;;5112823;28;20535;-72
2021/11/03 08:04:22;;;;;;;12.23;8.37;;;4.20;99.90;;;;;;5112141;28;20047;-74
2021/11/03 08:06:49;;;;;;;11.50;7.73;;;4.20;99.90;;;;;;5112542;28;20043;-74
2021/11/03 08:09:16;;;;;;;15.53;9.07;;;4.20;99.90;;;;;;5112707;28;20089;-72
2021/11/03 08:11:49;;;;;;;10.93;7.77;;;4.30;99.90;;;;;;5113101;28;20071;-72
2021/11/03 08:14:18;;;;;;;17.63;9.47;;;4.30;99.90;;;;;;5111588;28;20047;-73
2021/11/03 08:16:49;;;;;;;15.50;9.50;;;4.30;99.90;;;;;;5112444;28;20562;-73
2021/11/03 08:19:16;;;;;;;11.10;6.80;;;4.50;99.90;;;;;;5112630;28;20048;-74
2021/11/03 08:21:44;;;;;;;9.43;7.57;;;4.60;99.90;;;;;;5112677;28;20051;-71
2021/11/03 08:24:12;;;;;;;11.50;7.23;;;4.60;99.90;;;;;;5111989;28;20074;-73
2021/11/03 08:26:38;;;;;;;11.03;7.67;;;4.70;99.90;;;;;;5112504;28;20062;-71
2021/11/03 08:29:05;;;;;;;14.87;9.50;;;4.70;99.90;;;;;;5112276;28;20039;-71
2021/11/03 08:31:32;;;;;;;10.27;7.37;;;4.80;99.90;;;;;;5112655;28;20096;-72
2021/11/03 08:33:59;;;;;;;17.10;9.53;;;5.00;99.90;;;;;;5112198;28;20040;-79
2021/11/03 08:36:26;;;;;;;13.50;8.40;;;5.20;99.90;;;;;;5112785;28;20396;-71
2021/11/03 08:38:58;;;;;;;16.87;9.47;;;5.30;99.90;;;;;;5112437;28;20074;-72
2021/11/03 08:41:28;;;;;;;12.70;8.60;;;5.40;99.90;;;;;;5112457;28;20128;-75
2021/11/03 08:43:56;;;;;;;11.07;7.43;;;5.50;99.90;;;;;;5111644;28;20130;-74
2021/11/03 08:46:23;;;;;;;10.57;6.87;;;5.70;99.90;;;;;;5112154;28;20047;-69
2021/11/03 08:48:56;;;;;;;13.67;7.80;;;5.90;99.90;;;;;;5111907;28;20054;-72
2021/11/03 08:51:23;;;;;;;13.73;8.73;;;6.00;99.90;;;;;;5112320;28;20092;-72
2021/11/03 08:53:50;;;;;;;14.83;7.73;;;6.10;99.90;;;;;;5112274;28;20062;-72
2021/11/03 08:56:19;;;;;;;16.17;8.57;;;6.20;99.90;;;;;;5114357;28;20048;-76
2021/11/03 08:58:46;;;;;;;9.27;7.73;;;6.40;99.90;;;;;;5110806;28;20496;-75
2021/11/03 09:01:13;;;;;;;21.53;9.17;;;6.60;99.90;;;;;;5112243;28;20407;-75
2021/11/03 09:03:42;;;;;;;13.13;8.20;;;6.70;99.90;;;;;;5111655;28;20040;-75
2021/11/03 09:06:09;;;;;;;13.03;8.77;;;6.90;99.90;;;;;;5112441;28;20055;-77
2021/11/03 09:08:38;;;;;;;11.00;8.73;;;7.00;99.90;;;;;;5112361;28;20480;-74
2021/11/03 09:11:05;;;;;;;9.60;7.30;;;7.10;99.90;;;;;;5112049;28;20054;-72
2021/11/03 09:13:33;;;;;;;11.97;8.00;;;7.20;99.90;;;;;;5111575;28;20487;-72
2021/11/03 09:16:03;;;;;;;12.43;7.57;;;7.20;99.90;;;;;;5111925;28;20040;-71
2021/11/03 09:18:30;;;;;;;12.25;8.48;;;7.30;99.90;;;;;;5111839;28;20047;-70
2021/11/03 09:20:58;;;;;;;15.47;8.03;;;7.50;99.90;;;;;;5111975;28;20050;-71
2021/11/03 09:23:26;;;;;;;12.77;8.10;;;7.50;99.90;;;;;;5111160;28;20124;-71
2021/11/03 09:25:54;;;;;;;10.73;8.73;;;7.70;99.90;;;;;;5114390;28;20101;-71
2021/11/03 09:28:22;;;;;;;10.65;8.38;;;8.00;99.90;;;;;;5115892;28;20060;-72
2021/11/03 09:30:51;;;;;;;9.45;7.95;;;8.10;99.90;;;;;;5115967;28;20043;-72
2021/11/03 09:33:18;;;;;;;9.82;7.43;;;8.30;99.90;;;;;;5115406;28;20043;-72
2021/11/03 09:35:47;;;;;;;8.52;6.75;;;8.60;99.90;;;;;;5115554;28;20044;-71
2021/11/03 09:38:17;;;;;;;11.27;7.53;;;8.80;99.90;;;;;;5115800;28;20427;-72
2021/11/03 09:40:50;;;;;;;10.88;7.25;;;9.00;99.90;;;;;;5115787;28;20051;-73
2021/11/03 09:43:27;;;;;;;9.10;6.95;;;9.20;99.90;;;;;;5115230;28;20093;-73
2021/11/03 09:45:55;;;;;;;11.05;7.78;;;9.10;99.90;;;;;;5115534;28;20089;-72
2021/11/03 09:48:26;;;;;;;8.00;6.50;;;9.10;99.90;;;;;;5115443;28;20507;-74
2021/11/03 09:50:56;;;;;;;9.27;7.13;;;9.20;99.90;;;;;;5116169;28;20054;-73
2021/11/03 09:53:36;;;;;;;9.13;6.50;;;9.40;99.90;;;;;;5115192;28;20385;-74
2021/11/03 09:56:07;;;;;;;10.52;7.43;;;9.60;99.90;;;;;;5115802;28;20480;-75
2021/11/03 09:58:51;;;;;;;10.13;7.65;;;9.90;99.90;;;;;;5115345;28;20044;-72
2021/11/03 10:01:23;;;;;;;8.30;7.28;;;10.10;99.90;;;;;;5115447;28;20088;-71
2021/11/03 10:04:02;;;;;;;8.15;6.40;;;10.10;99.90;;;;;;5114882;28;20105;-72
2021/11/03 10:06:39;;;;;;;7.90;6.40;;;10.20;99.90;;;;;;5115643;28;20075;-71
2021/11/03 10:09:06;;;;;;;7.20;6.07;;;10.40;99.90;;;;;;5115549;28;20044;-71
2021/11/03 10:11:36;;;;;;;7.43;5.40;;;10.30;99.90;;;;;;5115277;28;20098;-74
2021/11/03 10:14:04;;;;;;;9.30;5.57;;;9.90;99.90;;;;;;5115251;28;20048;-74
2021/11/03 10:16:55;;;;;;;9.70;6.10;;;9.60;99.90;;;;;;5123433;28;20055;-78
2021/11/03 10:19:33;;;;;;;7.05;5.78;;;9.50;99.90;;;;;;5130899;28;20089;-76
2021/11/03 10:22:28;;;;;;;8.30;6.72;;;9.70;99.90;;;;;;5138273;28;20047;-78
2021/11/03 10:25:09;;;;;;;9.88;6.15;;;9.70;99.90;;;;;;5126703;27;20656;-76
2021/11/03 10:27:44;;;;;;;13.80;8.93;;;9.90;99.90;;;;;;5118021;28;20463;-75
2021/11/03 10:30:34;;;;;;;8.30;6.22;;;9.90;99.90;;;;;;5115287;28;20098;-71
2021/11/03 10:33:15;;;;;;;12.63;7.47;;;9.90;99.90;;;;;;5114808;28;20047;-72
2021/11/03 10:35:48;;;;;;;9.55;7.68;;;9.80;99.90;;;;;;5114720;28;20044;-71
2021/11/03 10:38:17;;;;;;;7.78;5.40;;;10.00;99.90;;;;;;5114040;28;20039;-74
2021/11/03 10:40:55;;;;;;;8.80;6.10;;;9.90;99.90;;;;;;5114199;28;20491;-73
2021/11/03 10:43:31;;;;;;;9.02;6.15;;;9.80;99.90;;;;;;5114091;28;20135;-73
2021/11/03 10:46:03;;;;;;;9.27;6.47;;;9.80;99.90;;;;;;5114468;28;20077;-73
2021/11/03 10:48:32;;;;;;;10.57;6.35;;;10.00;99.90;;;;;;5114154;28;20047;-72
2021/11/03 10:51:04;;;;;;;7.53;5.97;;;10.20;99.90;;;;;;5114230;28;20048;-72
2021/11/03 10:53:32;;;;;;;6.80;5.97;;;10.30;99.90;;;;;;5113917;28;20051;-71
2021/11/03 10:56:04;;;;;;;9.68;6.43;;;10.50;99.90;;;;;;5113799;28;20544;-73
2021/11/03 10:58:33;;;;;;;8.65;5.32;;;10.40;99.90;;;;;;5114421;28;20052;-70
2021/11/03 11:01:04;;;;;;;8.07;5.18;;;10.60;99.90;;;;;;5114213;28;20492;-71
2021/11/03 11:03:34;;;;;;;8.85;5.30;;;10.70;99.90;;;;;;5113406;28;20052;-71
2021/11/03 11:06:11;;;;;;;7.80;5.35;;;10.80;99.90;;;;;;5114079;28;20044;-71
2021/11/03 11:08:49;;;;;;;10.02;6.68;;;10.90;99.90;;;;;;5114077;28;20048;-70
2021/11/03 11:11:20;;;;;;;7.15;5.40;;;11.20;99.90;;;;;;5113757;28;20500;-71
2021/11/03 11:13:56;;;;;;;9.73;6.57;;;11.80;99.90;;;;;;5113369;28;20048;-71
2021/11/03 11:16:41;;;;;;;8.05;6.10;;;12.30;99.90;;;;;;5113791;28;20048;-71
2021/11/03 11:19:22;;;;;;;8.77;5.50;;;13.20;99.90;;;;;;5113849;28;20048;-71
2021/11/03 11:21:53;;;;;;;7.63;5.47;;;14.50;99.90;;;;;;5113785;28;20116;-70
2021/11/03 11:24:28;;;;;;;4.35;3.80;;;15.90;99.90;;;;;;5113089;28;20442;-71
2021/11/03 11:27:07;;;;;;;6.03;4.03;;;16.30;99.90;;;;;;5113600;28;20043;-72
2021/11/03 11:29:40;;;;;;;5.10;3.92;;;17.40;99.90;;;;;;5113443;28;20495;-71
2021/11/03 11:32:23;;;;;;;5.47;4.75;;;17.90;99.90;;;;;;5113527;28;20048;-71
2021/11/03 11:35:03;;;;;;;4.70;4.30;;;19.10;99.90;;;;;;5113090;28;20058;-71
2021/11/03 11:37:38;;;;;;;4.00;3.60;;;18.00;99.50;;;;;;5113532;28;20044;-72
2021/11/03 11:40:20;;;;;;;6.50;4.07;;;17.90;99.90;;;;;;5113302;27;20453;-72
2021/11/03 11:42:53;;;;;;;6.28;4.68;;;17.70;99.90;;;;;;5113368;28;20457;-71
2021/11/03 11:45:23;;;;;;;4.40;4.00;;;18.10;99.90;;;;;;5112882;28;20077;-71
2021/11/03 11:47:53;;;;;;;6.28;5.30;;;19.40;98.10;;;;;;5112810;28;20483;-71
2021/11/03 11:50:26;;;;;;;4.38;3.40;;;20.10;94.40;;;;;;5112714;28;20047;-71
2021/11/03 11:52:54;;;;;;;10.75;5.70;;;20.00;92.20;;;;;;5113168;28;20054;-72
2021/11/03 11:55:25;;;;;;;3.70;3.35;;;20.70;91.30;;;;;;5112490;28;20491;-71
2021/11/03 11:58:27;;;;;;;5.47;3.97;;;19.90;91.20;;;;;;5113523;28;20058;-72
2021/11/03 12:01:17;;;;;;;3.67;3.03;;;19.30;92.10;;;;;;5110674;28;20519;-73
2021/11/03 12:03:46;;;;;;;3.58;3.28;;;20.30;90.90;;;;;;5112377;28;20051;-72
2021/11/03 12:06:16;;;;;;;4.50;3.97;;;19.90;91.00;;;;;;5112945;28;20048;-73
2021/11/03 12:09:00;;;;;;;3.53;3.22;;;18.80;92.00;;;;;;5112871;28;20411;-70
2021/11/03 12:11:29;;;;;;;4.55;4.05;;;18.00;96.10;;;;;;5112848;28;20048;-71
2021/11/03 12:14:25;;;;;;;3.58;3.15;;;18.00;96.90;;;;;;5112138;28;20536;-72
2021/11/03 12:17:10;;;;;;;4.15;3.42;;;19.10;92.90;;;;;;5112924;28;20063;-73
2021/11/03 12:19:51;;;;;;;3.83;3.28;;;19.70;90.30;;;;;;5112485;28;20408;-72
2021/11/03 12:22:41;;;;;;;9.83;6.83;;;19.30;91.30;;;;;;5112605;28;20138;-72
2021/11/03 12:25:44;;;;;;;4.00;3.60;;;19.30;91.00;;;;;;5112215;28;20290;-76
2021/11/03 12:28:42;;;;;;;5.28;4.15;;;19.70;87.50;;;;;;5112769;28;20075;-75
2021/11/03 12:31:20;;;;;;;3.25;2.95;;;20.10;88.50;;;;;;5112611;28;20445;-76
2021/11/03 12:34:25;;;;;;;2.35;2.20;;;19.50;89.40;;;;;;5112485;28;20043;-74
2021/11/03 12:37:21;;;;;;;2.60;2.40;;;19.40;88.90;;;;;;5110088;28;20048;-74
2021/11/03 12:40:01;;;;;;;4.22;2.92;;;18.90;87.80;;;;;;5105825;28;20054;-75
2021/11/03 12:42:32;;;;;;;2.90;2.70;;;19.00;90.10;;;;;;5112458;28;20100;-75
2021/11/03 12:45:14;;;;;;;3.67;3.13;;;18.40;90.80;;;;;;5111733;28;20505;-75
2021/11/03 12:47:53;;;;;;;;;;;19.10;90.20;;;;;;5112477;28;20503;-74
2021/11/03 12:50:25;;;;;;;3.25;2.92;;;19.00;89.80;;;;;;5112450;28;19919;-76
2021/11/03 12:52:54;;;;;;;5.78;4.30;;;18.20;89.10;;;;;;5112346;28;20051;-74
2021/11/03 12:55:24;;;;;;;6.68;4.05;;;18.20;91.90;;;;;;5111895;28;20047;-71
2021/11/03 12:57:53;;;;;;;8.43;5.25;;;19.20;90.30;;;;;;5112357;28;20040;-70
2021/11/03 13:00:23;;;;;;;3.75;2.40;;;19.50;86.10;;;;;;5112044;28;20043;-73
2021/11/03 13:02:58;;;;;;;3.20;2.33;;;19.10;86.70;;;;;;5112259;28;20051;-71
2021/11/03 13:05:27;;;;;;;2.10;1.98;;;19.40;87.00;;;;;;5112036;28;20047;-71